createdAt,value
2019-03-11T04:51:51.334Z,6.00
2019-03-11T04:56:47.923Z,5.60
2019-03-11T05:01:44.453Z,5.20
2019-03-11T05:04:12.889Z,5.70
2019-03-11T05:06:41.304Z,5.90
2019-03-11T05:09:09.743Z,5.90
2019-03-11T05:11:38.165Z,5.60
2019-03-11T05:16:34.783Z,5.60
2019-03-11T05:21:31.317Z,5.70
2019-03-11T05:23:59.752Z,5.50
2019-03-11T05:28:56.384Z,5.40
2019-03-11T05:33:52.977Z,5.40
2019-03-11T05:36:21.428Z,5.20
2019-03-11T05:38:49.912Z,5.40
2019-03-11T05:41:18.340Z,5.50
2019-03-11T05:43:46.772Z,5.60
2019-03-11T05:48:43.410Z,5.30
2019-03-11T05:51:11.840Z,5.30
2019-03-11T05:53:40.344Z,5.80
2019-03-11T06:01:05.223Z,5.40
2019-03-11T06:06:01.753Z,5.10
2019-03-11T06:08:30.256Z,5.40
2019-03-11T06:10:58.676Z,5.40
2019-03-11T06:13:35.546Z,5.50
2019-03-11T06:15:57.258Z,5.20
2019-03-11T06:18:44.428Z,5.20
2019-03-11T06:21:14.129Z,5.20
2019-03-11T06:23:42.565Z,5.10
2019-03-11T06:26:11.002Z,5.20
2019-03-11T06:31:07.536Z,5.40
2019-03-11T06:33:35.960Z,5.40
2019-03-11T06:36:06.938Z,5.40
2019-03-11T06:38:42.839Z,5.40
2019-03-11T06:43:43.300Z,5.50
2019-03-11T06:46:12.357Z,5.10
2019-03-11T06:51:24.215Z,5.90
2019-03-11T06:53:52.627Z,5.80
2019-03-11T06:58:49.206Z,5.70
2019-03-11T07:01:17.640Z,6.10
2019-03-11T07:03:46.075Z,5.70
2019-03-11T07:06:14.586Z,5.50
2019-03-11T07:13:39.312Z,6.10
2019-03-11T07:23:34.092Z,6.30
2019-03-11T07:26:02.542Z,6.60
2019-03-11T07:28:30.956Z,6.10
2019-03-11T07:38:23.718Z,5.90
2019-03-11T07:40:52.298Z,6.20
2019-03-11T07:43:20.720Z,6.50
2019-03-11T07:48:17.248Z,6.00
2019-03-11T07:50:45.688Z,6.10
2019-03-11T07:53:14.117Z,5.30
2019-03-11T07:55:42.557Z,4.80
2019-03-11T07:58:10.980Z,4.20
2019-03-11T08:00:39.436Z,4.00
2019-03-11T08:03:07.932Z,3.20
2019-03-11T08:05:36.380Z,3.20
2019-03-11T08:08:04.930Z,3.40
2019-03-11T08:10:33.412Z,3.00
2019-03-11T08:15:29.978Z,2.90
2019-03-11T08:22:54.709Z,3.40
2019-03-11T08:25:23.148Z,3.20
2019-03-11T08:27:51.564Z,3.30
2019-03-11T08:30:21.263Z,3.30
2019-03-11T08:35:18.045Z,4.90
2019-03-11T08:40:16.225Z,6.00
2019-03-11T08:42:44.639Z,5.90
2019-03-11T08:45:14.809Z,5.80
2019-03-11T08:47:43.395Z,4.80
2019-03-11T08:52:43.586Z,5.20
2019-03-11T08:55:12.558Z,4.90
2019-03-11T09:02:51.337Z,4.80
2019-03-11T09:10:17.089Z,8.20
2019-03-11T09:12:45.695Z,9.60
2019-03-11T09:17:43.430Z,10.60
2019-03-11T09:20:13.771Z,11.10
2019-03-11T09:22:42.389Z,10.80
2019-03-11T09:27:40.214Z,12.10
2019-03-11T09:30:11.733Z,12.60
2019-03-11T09:32:40.193Z,12.90
2019-03-11T09:35:08.965Z,12.20
2019-03-11T09:37:37.410Z,11.90
2019-03-11T09:40:09.249Z,12.10
2019-03-11T09:42:37.692Z,12.80
2019-03-11T09:45:09.373Z,12.30
2019-03-11T09:47:37.807Z,13.40
2019-03-11T09:52:36.130Z,13.50
2019-03-11T09:55:07.080Z,12.40
2019-03-11T09:57:35.591Z,12.70
2019-03-11T10:00:07.136Z,12.80
2019-03-11T10:02:35.581Z,13.80
2019-03-11T10:05:06.925Z,14.20
2019-03-11T10:07:35.390Z,14.40
2019-03-11T10:10:05.836Z,15.00
2019-03-11T10:12:34.374Z,13.50
2019-03-11T10:15:03.163Z,12.70
2019-03-11T10:19:59.719Z,10.90
2019-03-11T10:22:28.182Z,10.50
2019-03-11T10:27:24.767Z,9.40
2019-03-11T10:29:53.222Z,9.40
2019-03-11T10:32:21.680Z,9.10
2019-03-11T10:34:50.143Z,8.70
2019-03-11T10:37:18.666Z,7.80
2019-03-11T10:39:48.097Z,8.10
2019-03-11T10:42:16.742Z,7.10
2019-03-11T10:44:45.191Z,6.10
2019-03-11T10:49:41.859Z,5.80
2019-03-11T10:52:10.305Z,5.70
2019-03-11T10:54:38.738Z,5.10
2019-03-11T10:57:07.193Z,5.20
2019-03-11T10:59:35.608Z,4.60
2019-03-11T11:02:04.216Z,4.30
2019-03-11T11:04:32.646Z,4.30
2019-03-11T11:07:01.104Z,4.40
2019-03-11T11:09:29.588Z,4.10
2019-03-11T11:11:58.022Z,4.10
2019-03-11T11:14:26.440Z,3.80
2019-03-11T11:16:54.878Z,4.20
2019-03-11T11:19:23.302Z,3.90
2019-03-11T11:21:51.737Z,3.70
2019-03-11T11:24:20.160Z,3.70
2019-03-11T11:26:48.643Z,3.40
2019-03-11T11:29:17.103Z,3.40
2019-03-11T11:31:45.591Z,3.80
2019-03-11T11:34:14.049Z,3.90
2019-03-11T11:36:42.484Z,3.10
2019-03-11T11:39:11.005Z,3.00
2019-03-11T11:41:39.437Z,3.10
2019-03-11T11:44:07.866Z,2.80
2019-03-11T11:46:36.358Z,2.90
2019-03-11T11:49:04.786Z,3.00
2019-03-11T11:56:29.571Z,3.20
2019-03-11T11:58:58.075Z,3.00
2019-03-11T12:01:26.520Z,2.70
2019-03-11T12:03:54.948Z,3.10
2019-03-11T12:08:51.521Z,3.30
2019-03-11T12:11:19.945Z,3.50
2019-03-11T12:13:48.393Z,3.60
2019-03-11T12:16:16.837Z,3.50
2019-03-11T12:18:45.388Z,3.00
2019-03-11T12:21:13.873Z,3.70
2019-03-11T12:26:12.221Z,3.90
2019-03-11T12:28:40.657Z,3.90
2019-03-11T12:36:05.545Z,4.50
2019-03-11T12:41:02.094Z,4.80
2019-03-11T12:43:30.679Z,5.20
2019-03-11T12:48:27.237Z,5.40
2019-03-11T12:50:55.660Z,5.40
2019-03-11T12:53:24.100Z,5.70
2019-03-11T12:55:52.561Z,5.80
2019-03-11T13:00:49.124Z,6.10
2019-03-11T13:03:17.564Z,6.30
2019-03-11T13:05:45.988Z,6.70
2019-03-11T13:08:14.423Z,7.30
2019-03-11T13:13:10.981Z,7.90
2019-03-11T13:18:30.016Z,8.40
2019-03-11T13:21:00.954Z,8.70
2019-03-11T13:23:29.632Z,9.10
2019-03-11T13:25:58.065Z,9.10
2019-03-11T13:28:26.593Z,9.70
2019-03-11T13:30:55.025Z,9.50
2019-03-11T13:33:23.454Z,9.90
2019-03-11T13:35:51.910Z,9.80
2019-03-11T13:38:21.387Z,9.80
2019-03-11T13:43:18.121Z,10.90
2019-03-11T13:45:46.594Z,10.20
2019-03-11T13:50:43.141Z,9.60
2019-03-11T13:53:11.663Z,9.70
2019-03-11T14:00:37.685Z,9.10
2019-03-11T14:03:06.148Z,8.60
2019-03-11T14:05:34.700Z,8.10
2019-03-11T14:08:03.137Z,7.50
2019-03-11T14:10:31.591Z,7.30
2019-03-11T14:13:00.718Z,7.40
2019-03-11T14:15:29.333Z,7.50
2019-03-11T14:17:58.814Z,7.80
2019-03-11T14:22:55.395Z,8.30
2019-03-11T14:30:23.673Z,8.30
2019-03-11T14:32:52.107Z,8.60
2019-03-11T14:35:20.698Z,8.80
2019-03-11T14:40:18.589Z,8.60
2019-03-11T14:47:45.421Z,8.90
2019-03-11T14:50:14.818Z,8.60
2019-03-11T14:55:13.155Z,8.70
2019-03-11T14:57:41.886Z,8.70
2019-03-11T15:00:18.751Z,8.60
2019-03-11T15:02:47.461Z,8.90
2019-03-11T15:10:15.219Z,9.40
2019-03-11T15:12:43.681Z,9.40
2019-03-11T15:15:17.937Z,9.50
2019-03-11T15:20:14.985Z,9.70
2019-03-11T15:22:43.462Z,9.60
2019-03-11T15:25:13.740Z,9.30
2019-03-11T15:27:42.299Z,8.90
2019-03-11T15:30:18.695Z,9.10
2019-03-11T15:32:47.258Z,8.40
2019-03-11T15:35:16.063Z,7.70
2019-03-11T15:37:44.707Z,8.00
2019-03-11T15:40:16.322Z,8.30
2019-03-11T15:45:15.472Z,9.20
2019-03-11T15:47:43.989Z,9.00
2019-03-11T15:50:15.292Z,8.60
2019-03-11T15:55:14.195Z,7.60
2019-03-11T15:57:42.697Z,7.80
2019-03-11T16:00:14.550Z,8.00
2019-03-11T16:02:43.118Z,7.70
2019-03-11T16:07:39.978Z,7.90
2019-03-11T16:10:16.870Z,7.60
2019-03-11T16:12:41.768Z,7.90
2019-03-11T16:17:39.662Z,7.80
2019-03-11T16:20:19.552Z,8.00
2019-03-11T16:22:48.271Z,8.10
2019-03-11T16:27:44.904Z,7.60
2019-03-11T16:35:13.128Z,6.90
2019-03-11T16:40:12.081Z,6.90
2019-03-11T16:42:40.756Z,7.00
2019-03-11T16:45:14.225Z,6.40
2019-03-11T16:47:42.715Z,6.20
2019-03-11T16:55:14.282Z,6.40
2019-03-11T17:00:16.826Z,6.40
2019-03-11T17:02:45.274Z,6.20
2019-03-11T17:05:14.142Z,5.70
2019-03-11T17:07:42.642Z,5.70
2019-03-11T17:10:16.699Z,5.70
2019-03-11T17:15:13.591Z,5.20
2019-03-11T17:22:45.329Z,5.00
2019-03-11T17:25:14.796Z,4.60
2019-03-11T17:27:43.987Z,5.00
2019-03-11T17:30:21.819Z,5.40
2019-03-11T17:32:50.314Z,5.40
2019-03-11T17:37:47.187Z,5.20
2019-03-11T17:40:18.767Z,4.80
2019-03-11T17:42:48.018Z,4.30
2019-03-11T17:45:17.559Z,5.00
2019-03-11T17:52:47.070Z,5.00
2019-03-11T17:55:18.030Z,4.80
2019-03-11T18:02:55.010Z,4.40
2019-03-11T18:05:24.843Z,4.60
2019-03-11T18:07:55.280Z,4.40
2019-03-11T18:10:24.457Z,4.40
2019-03-11T18:15:21.490Z,4.50
2019-03-11T18:17:50.296Z,4.60
2019-03-11T18:22:48.597Z,4.60
2019-03-11T18:27:46.679Z,4.50
2019-03-11T18:30:26.990Z,4.20
2019-03-11T18:35:23.793Z,3.70
2019-03-11T18:38:03.302Z,3.70
2019-03-11T18:42:50.804Z,3.50
2019-03-11T18:45:20.182Z,3.50
2019-03-11T18:52:46.829Z,3.70
2019-03-11T18:55:15.561Z,3.80
2019-03-11T18:57:44.198Z,3.60
2019-03-11T19:02:43.050Z,4.00
2019-03-11T19:07:41.351Z,3.80
2019-03-11T19:10:15.100Z,3.50
2019-03-11T19:12:43.681Z,3.70
2019-03-11T19:15:15.401Z,3.70
2019-03-11T19:17:44.085Z,3.70
2019-03-11T19:22:42.147Z,3.50
2019-03-11T19:37:34.969Z,2.90
2019-03-11T19:42:32.041Z,2.30
2019-03-11T19:52:25.919Z,2.90
2019-03-11T19:57:22.989Z,2.60
2019-03-11T20:02:19.806Z,2.70
2019-03-11T20:04:48.383Z,3.00
2019-03-11T20:09:45.577Z,2.30
2019-03-11T20:14:42.842Z,2.20
2019-03-11T20:17:11.822Z,2.30
2019-03-11T20:19:40.647Z,2.40
2019-03-11T20:22:11.012Z,2.50
2019-03-11T20:24:39.677Z,2.20
2019-03-11T20:27:11.925Z,2.50
2019-03-11T20:29:40.948Z,2.20
2019-03-11T20:32:09.557Z,2.30
2019-03-11T20:34:38.088Z,2.30
2019-03-11T20:39:35.234Z,2.30
2019-03-11T20:42:03.987Z,2.40
2019-03-11T20:44:33.742Z,2.30
2019-03-11T20:47:02.326Z,2.40
2019-03-11T20:49:31.276Z,2.50
2019-03-11T20:52:00.145Z,2.40
2019-03-11T20:54:30.843Z,1.80
2019-03-11T21:01:57.963Z,2.20
2019-03-11T21:06:56.834Z,2.00
2019-03-11T21:09:27.507Z,2.30
2019-03-11T21:11:56.139Z,2.40
2019-03-11T21:16:55.282Z,2.30
2019-03-11T21:21:54.042Z,2.40
2019-03-11T21:24:25.340Z,2.20
2019-03-11T21:26:54.044Z,3.00
2019-03-11T21:29:22.590Z,2.30
2019-03-11T21:31:51.240Z,2.30
2019-03-11T21:34:19.972Z,2.30
2019-03-11T21:36:50.854Z,2.30
2019-03-11T21:39:22.175Z,2.40
2019-03-11T21:41:57.910Z,2.30
2019-03-11T21:44:30.680Z,2.20
2019-03-11T21:49:31.854Z,2.20
2019-03-11T21:52:01.667Z,2.20
2019-03-11T21:54:30.214Z,2.90
2019-03-11T21:56:59.534Z,2.60
2019-03-11T22:01:56.451Z,2.40
2019-03-11T22:04:24.876Z,2.20
2019-03-11T22:06:53.333Z,2.40
2019-03-11T22:09:21.784Z,2.30
2019-03-11T22:11:50.342Z,2.50
2019-03-11T22:14:18.855Z,2.40
2019-03-11T22:16:47.502Z,2.30
2019-03-11T22:19:15.947Z,2.50
2019-03-11T22:21:44.409Z,2.50
2019-03-11T22:24:12.856Z,2.40
2019-03-11T22:26:41.499Z,2.50
2019-03-11T22:29:09.992Z,2.40
2019-03-11T22:31:38.488Z,2.50
2019-03-11T22:34:06.911Z,2.20
2019-03-11T22:36:35.355Z,2.40
2019-03-11T22:39:04.621Z,2.30
2019-03-11T22:44:01.250Z,2.30
2019-03-11T22:48:57.828Z,2.60
2019-03-11T22:51:26.564Z,2.50
2019-03-11T22:53:55.165Z,2.60
2019-03-11T23:01:23.557Z,2.30
2019-03-11T23:03:52.179Z,2.50
2019-03-11T23:06:21.025Z,2.50
2019-03-11T23:08:49.658Z,2.60
2019-03-11T23:11:18.376Z,2.70
2019-03-11T23:13:46.937Z,2.40
2019-03-11T23:18:43.784Z,2.50
2019-03-11T23:21:12.276Z,2.50
2019-03-11T23:23:40.705Z,2.40
2019-03-11T23:28:37.231Z,2.50
2019-03-11T23:31:05.670Z,2.30
2019-03-11T23:36:02.220Z,2.80
2019-03-11T23:38:30.644Z,2.20
2019-03-11T23:40:59.153Z,2.10
2019-03-11T23:43:27.572Z,2.00
2019-03-11T23:45:56.011Z,2.10
2019-03-11T23:48:24.431Z,2.40
2019-03-11T23:53:21.050Z,2.10
2019-03-11T23:58:17.667Z,2.10
